Accueil
METAR-TAF:

METAR-TAF

Aéroports :

Aéroport international Angoulême-Cognac

Angoulême, France

latitude: 45-43-46N, longitude: 00-13-08E, altitude: 132 m

Observation

Le bulletin a été fait il y a 31 minutes, à 21:30 UTC
Vent 6 kt de nord
Température 3°C
Humidité 70%
Pression 1020 hPa
Visibilité: 9000 m

METAR: LFBU 082130Z AUTO 36006KT 9000 NSC 03/M02 Q1020

Heure: 23:01 (22:01 UTC)

Prévision

Le bulletin a été fait il y a 5 heures et 1 minutes, à 17:00 UTC
Prévision valable du 08 à 18 UTC au 09 à 18 UTC
Vent 8 kt de nord
Visibilité 10 km ou plus
pas de nuages en-dessous de 1500 mètres et pas de cumulonimbus.

TAF: LFBU 081700Z 0818/0918 01008KT CAVOK

Observations et prévisions météorologiques de plus de 4000 aéroports (messages METAR et TAF).

Les stations disponibles sont représentées par des disques jaunes et rouges sur la carte.

Passer la souris dessus pour voir le nom de la station.

Cliquer dessus pour voir les observations et prévisions météorologiques.

Pour changer de carte: cliquez sur les boutons verts avec une croix noire pour zoomer, sur le bouton vert avec un tiret pour effectuer un zoom arrière, ou sur les flèches vertes pour les cartes adjacentes.


METAR-TAF: